sensor_id;sensor_type;location;lat;lon;timestamp;pressure;altitude;pressure_sealevel;temperature;humidity
49063;BME280;34876;51.464;-0.150;2022-07-24T00:03:13;101641.39;;;25.31;42.87
49063;BME280;34876;51.464;-0.150;2022-07-24T00:05:43;101646.69;;;25.34;42.77
49063;BME280;34876;51.464;-0.150;2022-07-24T00:08:13;101648.42;;;25.34;42.78
49063;BME280;34876;51.464;-0.150;2022-07-24T00:10:43;101645.31;;;25.34;42.78
49063;BME280;34876;51.464;-0.150;2022-07-24T00:13:12;101641.17;;;25.34;42.78
49063;BME280;34876;51.464;-0.150;2022-07-24T00:15:42;101635.84;;;25.28;42.95
49063;BME280;34876;51.464;-0.150;2022-07-24T00:18:12;101635.67;;;25.30;42.89
49063;BME280;34876;51.464;-0.150;2022-07-24T00:20:42;101637.31;;;25.32;42.86
49063;BME280;34876;51.464;-0.150;2022-07-24T00:23:11;101632.09;;;25.28;42.95
49063;BME280;34876;51.464;-0.150;2022-07-24T00:25:46;101634.47;;;25.31;42.91
49063;BME280;34876;51.464;-0.150;2022-07-24T00:28:15;101634.45;;;25.11;43.42
49063;BME280;34876;51.464;-0.150;2022-07-24T00:30:45;101634.23;;;25.30;42.93
49063;BME280;34876;51.464;-0.150;2022-07-24T00:33:16;101637.74;;;25.31;42.91
49063;BME280;34876;51.464;-0.150;2022-07-24T00:35:47;101643.27;;;25.24;43.12
49063;BME280;34876;51.464;-0.150;2022-07-24T00:38:15;101641.72;;;25.31;42.94
49063;BME280;34876;51.464;-0.150;2022-07-24T00:40:44;101634.43;;;25.31;42.93
49063;BME280;34876;51.464;-0.150;2022-07-24T00:43:14;101632.82;;;25.33;42.87
49063;BME280;34876;51.464;-0.150;2022-07-24T00:45:44;101629.06;;;25.26;43.10
49063;BME280;34876;51.464;-0.150;2022-07-24T00:48:14;101629.31;;;25.35;42.83
49063;BME280;34876;51.464;-0.150;2022-07-24T00:50:43;101628.89;;;25.34;42.88
49063;BME280;34876;51.464;-0.150;2022-07-24T00:53:14;101623.87;;;25.33;42.93
49063;BME280;34876;51.464;-0.150;2022-07-24T00:55:43;101625.17;;;25.30;42.99
49063;BME280;34876;51.464;-0.150;2022-07-24T00:58:13;101628.21;;;25.31;42.96
49063;BME280;34876;51.464;-0.150;2022-07-24T01:00:45;101627.26;;;25.30;42.99
49063;BME280;34876;51.464;-0.150;2022-07-24T01:03:14;101626.69;;;25.27;43.07
49063;BME280;34876;51.464;-0.150;2022-07-24T01:05:44;101629.45;;;25.30;42.99
49063;BME280;34876;51.464;-0.150;2022-07-24T01:08:14;101632.92;;;25.30;42.99
49063;BME280;34876;51.464;-0.150;2022-07-24T01:10:46;101623.73;;;25.27;43.09
49063;BME280;34876;51.464;-0.150;2022-07-24T01:13:15;101615.96;;;25.31;43.00
49063;BME280;34876;51.464;-0.150;2022-07-24T01:15:47;101615.90;;;25.28;43.05
49063;BME280;34876;51.464;-0.150;2022-07-24T01:18:16;101617.12;;;25.29;43.03
49063;BME280;34876;51.464;-0.150;2022-07-24T01:20:47;101615.29;;;25.29;43.02
49063;BME280;34876;51.464;-0.150;2022-07-24T01:23:16;101614.00;;;25.21;43.25
49063;BME280;34876;51.464;-0.150;2022-07-24T01:25:46;101611.92;;;25.19;43.29
49063;BME280;34876;51.464;-0.150;2022-07-24T01:28:15;101610.57;;;25.28;43.08
49063;BME280;34876;51.464;-0.150;2022-07-24T01:30:46;101613.82;;;25.24;43.20
49063;BME280;34876;51.464;-0.150;2022-07-24T01:33:16;101607.91;;;25.28;43.07
49063;BME280;34876;51.464;-0.150;2022-07-24T01:35:47;101606.82;;;25.29;43.08
49063;BME280;34876;51.464;-0.150;2022-07-24T01:38:18;101609.79;;;25.27;43.11
49063;BME280;34876;51.464;-0.150;2022-07-24T01:40:48;101610.08;;;25.28;43.07
49063;BME280;34876;51.464;-0.150;2022-07-24T01:43:17;101604.98;;;25.29;43.07
49063;BME280;34876;51.464;-0.150;2022-07-24T01:45:47;101605.40;;;25.30;43.06
49063;BME280;34876;51.464;-0.150;2022-07-24T01:48:16;101602.75;;;25.29;43.09
49063;BME280;34876;51.464;-0.150;2022-07-24T01:50:45;101602.53;;;25.27;43.13
49063;BME280;34876;51.464;-0.150;2022-07-24T01:53:15;101590.55;;;25.28;43.09
49063;BME280;34876;51.464;-0.150;2022-07-24T01:55:44;101589.08;;;25.14;43.47
49063;BME280;34876;51.464;-0.150;2022-07-24T01:58:13;101586.60;;;25.20;43.36
49063;BME280;34876;51.464;-0.150;2022-07-24T02:00:48;101585.89;;;25.01;43.96
49063;BME280;34876;51.464;-0.150;2022-07-24T02:03:19;101589.93;;;24.92;44.07
49063;BME280;34876;51.464;-0.150;2022-07-24T02:05:49;101590.47;;;24.97;45.94
49063;BME280;34876;51.464;-0.150;2022-07-24T02:08:18;101594.72;;;25.18;43.36
49063;BME280;34876;51.464;-0.150;2022-07-24T02:10:46;101595.29;;;25.23;43.25
49063;BME280;34876;51.464;-0.150;2022-07-24T02:13:15;101598.10;;;25.26;43.19
49063;BME280;34876;51.464;-0.150;2022-07-24T02:15:45;101599.63;;;25.25;43.21
49063;BME280;34876;51.464;-0.150;2022-07-24T02:18:19;101602.81;;;25.26;43.19
49063;BME280;34876;51.464;-0.150;2022-07-24T02:20:49;101600.08;;;25.26;43.18
49063;BME280;34876;51.464;-0.150;2022-07-24T02:23:19;101594.96;;;25.25;43.21
49063;BME280;34876;51.464;-0.150;2022-07-24T02:25:49;101592.11;;;25.25;43.21
49063;BME280;34876;51.464;-0.150;2022-07-24T02:28:19;101592.06;;;25.23;43.22
49063;BME280;34876;51.464;-0.150;2022-07-24T02:30:48;101593.44;;;25.24;43.25
49063;BME280;34876;51.464;-0.150;2022-07-24T02:33:18;101592.93;;;25.22;43.27
49063;BME280;34876;51.464;-0.150;2022-07-24T02:35:48;101592.92;;;25.25;43.21
49063;BME280;34876;51.464;-0.150;2022-07-24T02:38:17;101594.62;;;25.23;43.26
49063;BME280;34876;51.464;-0.150;2022-07-24T02:40:48;101597.86;;;25.24;43.24
49063;BME280;34876;51.464;-0.150;2022-07-24T02:43:17;101594.85;;;25.23;43.25
49063;BME280;34876;51.464;-0.150;2022-07-24T02:45:46;101591.91;;;25.24;43.24
49063;BME280;34876;51.464;-0.150;2022-07-24T02:48:17;101590.11;;;25.22;43.26
49063;BME280;34876;51.464;-0.150;2022-07-24T02:50:47;101590.09;;;25.23;43.23
49063;BME280;34876;51.464;-0.150;2022-07-24T02:53:17;101591.23;;;25.21;43.31
49063;BME280;34876;51.464;-0.150;2022-07-24T02:55:46;101591.02;;;25.21;43.30
49063;BME280;34876;51.464;-0.150;2022-07-24T02:58:16;101586.79;;;25.20;43.32
49063;BME280;34876;51.464;-0.150;2022-07-24T03:00:44;101586.33;;;25.14;43.47
49063;BME280;34876;51.464;-0.150;2022-07-24T03:03:14;101588.08;;;25.22;43.28
49063;BME280;34876;51.464;-0.150;2022-07-24T03:05:44;101590.54;;;25.23;43.26
49063;BME280;34876;51.464;-0.150;2022-07-24T03:08:13;101585.41;;;25.04;43.74
49063;BME280;34876;51.464;-0.150;2022-07-24T03:10:42;101582.89;;;25.21;43.33
49063;BME280;34876;51.464;-0.150;2022-07-24T03:13:11;101582.24;;;25.22;43.32
49063;BME280;34876;51.464;-0.150;2022-07-24T03:15:40;101578.71;;;25.21;43.32
49063;BME280;34876;51.464;-0.150;2022-07-24T03:18:09;101579.49;;;25.26;43.25
49063;BME280;34876;51.464;-0.150;2022-07-24T03:20:38;101581.32;;;25.22;43.34
49063;BME280;34876;51.464;-0.150;2022-07-24T03:23:07;101576.15;;;25.18;43.41
49063;BME280;34876;51.464;-0.150;2022-07-24T03:25:36;101577.01;;;25.21;43.37
49063;BME280;34876;51.464;-0.150;2022-07-24T03:28:05;101577.54;;;25.22;43.35
49063;BME280;34876;51.464;-0.150;2022-07-24T03:30:34;101576.69;;;25.14;43.56
49063;BME280;34876;51.464;-0.150;2022-07-24T03:33:04;101573.86;;;25.21;43.39
49063;BME280;34876;51.464;-0.150;2022-07-24T03:35:33;101573.62;;;25.22;43.35
49063;BME280;34876;51.464;-0.150;2022-07-24T03:38:03;101574.84;;;25.19;43.42
49063;BME280;34876;51.464;-0.150;2022-07-24T03:40:34;101577.86;;;25.19;43.42
49063;BME280;34876;51.464;-0.150;2022-07-24T03:43:02;101583.10;;;25.22;43.36
49063;BME280;34876;51.464;-0.150;2022-07-24T03:45:32;101582.49;;;25.21;43.40
49063;BME280;34876;51.464;-0.150;2022-07-24T03:48:01;101583.84;;;25.21;43.37
49063;BME280;34876;51.464;-0.150;2022-07-24T03:50:30;101582.80;;;25.21;43.36
49063;BME280;34876;51.464;-0.150;2022-07-24T03:52:59;101577.24;;;25.16;43.49
49063;BME280;34876;51.464;-0.150;2022-07-24T03:55:28;101579.80;;;25.20;43.39
49063;BME280;34876;51.464;-0.150;2022-07-24T03:57:58;101576.02;;;25.05;43.74
49063;BME280;34876;51.464;-0.150;2022-07-24T04:00:28;101571.10;;;25.16;43.49
49063;BME280;34876;51.464;-0.150;2022-07-24T04:02:58;101567.74;;;25.18;43.42
49063;BME280;34876;51.464;-0.150;2022-07-24T04:05:27;101572.10;;;25.18;43.42
49063;BME280;34876;51.464;-0.150;2022-07-24T04:07:57;101577.96;;;25.18;43.43
49063;BME280;34876;51.464;-0.150;2022-07-24T04:10:27;101575.37;;;25.19;43.41
49063;BME280;34876;51.464;-0.150;2022-07-24T04:12:57;101570.50;;;25.18;43.42
49063;BME280;34876;51.464;-0.150;2022-07-24T04:15:26;101569.21;;;25.17;43.42
49063;BME280;34876;51.464;-0.150;2022-07-24T04:17:55;101570.62;;;25.19;43.40
49063;BME280;34876;51.464;-0.150;2022-07-24T04:20:24;101570.38;;;25.18;43.42
49063;BME280;34876;51.464;-0.150;2022-07-24T04:22:53;101570.69;;;25.17;43.44
49063;BME280;34876;51.464;-0.150;2022-07-24T04:25:22;101573.44;;;25.17;43.44
49063;BME280;34876;51.464;-0.150;2022-07-24T04:27:52;101575.00;;;25.19;43.38
49063;BME280;34876;51.464;-0.150;2022-07-24T04:30:21;101570.21;;;25.17;43.42
49063;BME280;34876;51.464;-0.150;2022-07-24T04:32:50;101562.47;;;25.18;43.42
49063;BME280;34876;51.464;-0.150;2022-07-24T04:35:20;101550.65;;;25.16;43.43
49063;BME280;34876;51.464;-0.150;2022-07-24T04:37:48;101552.82;;;25.12;43.56
49063;BME280;34876;51.464;-0.150;2022-07-24T04:40:18;101553.97;;;25.14;43.47
49063;BME280;34876;51.464;-0.150;2022-07-24T04:42:47;101552.32;;;25.20;43.36
49063;BME280;34876;51.464;-0.150;2022-07-24T04:45:15;101555.60;;;25.16;43.42
49063;BME280;34876;51.464;-0.150;2022-07-24T04:47:44;101556.90;;;25.10;43.60
49063;BME280;34876;51.464;-0.150;2022-07-24T04:50:13;101553.09;;;25.17;43.42
49063;BME280;34876;51.464;-0.150;2022-07-24T04:52:43;101559.32;;;25.16;43.42
49063;BME280;34876;51.464;-0.150;2022-07-24T04:55:13;101562.74;;;25.19;43.33
49063;BME280;34876;51.464;-0.150;2022-07-24T04:57:42;101560.76;;;25.18;43.36
49063;BME280;34876;51.464;-0.150;2022-07-24T05:00:13;101562.71;;;25.16;43.39
49063;BME280;34876;51.464;-0.150;2022-07-24T05:02:42;101559.87;;;25.13;43.50
49063;BME280;34876;51.464;-0.150;2022-07-24T05:05:12;101561.58;;;25.35;42.98
49063;BME280;34876;51.464;-0.150;2022-07-24T05:07:41;101561.49;;;25.19;43.35
49063;BME280;34876;51.464;-0.150;2022-07-24T05:10:10;101554.76;;;25.14;43.45
49063;BME280;34876;51.464;-0.150;2022-07-24T05:12:39;101552.52;;;25.17;43.39
49063;BME280;34876;51.464;-0.150;2022-07-24T05:15:09;101550.86;;;25.02;43.73
49063;BME280;34876;51.464;-0.150;2022-07-24T05:17:38;101548.32;;;25.13;43.49
49063;BME280;34876;51.464;-0.150;2022-07-24T05:20:09;101546.70;;;25.01;43.94
49063;BME280;34876;51.464;-0.150;2022-07-24T05:22:39;101549.12;;;25.12;43.52
49063;BME280;34876;51.464;-0.150;2022-07-24T05:25:08;101554.11;;;25.10;43.54
49063;BME280;34876;51.464;-0.150;2022-07-24T05:27:37;101554.31;;;25.14;43.43
49063;BME280;34876;51.464;-0.150;2022-07-24T05:30:08;101552.86;;;25.14;43.42
49063;BME280;34876;51.464;-0.150;2022-07-24T05:32:37;101549.22;;;25.04;43.68
49063;BME280;34876;51.464;-0.150;2022-07-24T05:35:07;101547.20;;;25.08;43.57
49063;BME280;34876;51.464;-0.150;2022-07-24T05:37:36;101544.19;;;25.13;43.43
49063;BME280;34876;51.464;-0.150;2022-07-24T05:40:06;101541.62;;;25.13;43.44
49063;BME280;34876;51.464;-0.150;2022-07-24T05:42:35;101539.58;;;24.98;43.85
49063;BME280;34876;51.464;-0.150;2022-07-24T05:45:09;101536.81;;;24.84;45.64
49063;BME280;34876;51.464;-0.150;2022-07-24T05:47:40;101536.06;;;25.01;43.76
49063;BME280;34876;51.464;-0.150;2022-07-24T05:50:11;101538.82;;;25.16;43.41
49063;BME280;34876;51.464;-0.150;2022-07-24T05:52:41;101540.69;;;25.10;43.52
49063;BME280;34876;51.464;-0.150;2022-07-24T05:55:11;101543.22;;;25.17;43.37
49063;BME280;34876;51.464;-0.150;2022-07-24T05:57:40;101546.48;;;25.20;43.28
49063;BME280;34876;51.464;-0.150;2022-07-24T06:00:10;101546.23;;;25.26;43.10
49063;BME280;34876;51.464;-0.150;2022-07-24T06:02:39;101548.78;;;25.24;43.18
49063;BME280;34876;51.464;-0.150;2022-07-24T06:05:08;101548.15;;;25.01;43.72
49063;BME280;34876;51.464;-0.150;2022-07-24T06:07:37;101544.06;;;25.17;43.33
49063;BME280;34876;51.464;-0.150;2022-07-24T06:10:07;101536.41;;;25.03;43.69
49063;BME280;34876;51.464;-0.150;2022-07-24T06:12:36;101535.03;;;25.02;43.71
49063;BME280;34876;51.464;-0.150;2022-07-24T06:15:06;101532.17;;;24.59;45.04
49063;BME280;34876;51.464;-0.150;2022-07-24T06:17:36;101529.67;;;25.18;43.35
49063;BME280;34876;51.464;-0.150;2022-07-24T06:20:06;101531.99;;;25.19;43.29
49063;BME280;34876;51.464;-0.150;2022-07-24T06:22:35;101530.02;;;24.61;45.41
49063;BME280;34876;51.464;-0.150;2022-07-24T06:25:06;101527.55;;;25.10;43.53
49063;BME280;34876;51.464;-0.150;2022-07-24T06:27:40;101526.17;;;25.21;43.26
49063;BME280;34876;51.464;-0.150;2022-07-24T06:30:13;101522.81;;;25.26;43.09
49063;BME280;34876;51.464;-0.150;2022-07-24T06:32:43;101526.61;;;25.20;43.24
49063;BME280;34876;51.464;-0.150;2022-07-24T06:35:12;101518.96;;;25.44;42.67
49063;BME280;34876;51.464;-0.150;2022-07-24T06:37:42;101517.06;;;25.84;41.73
49063;BME280;34876;51.464;-0.150;2022-07-24T06:40:12;101516.00;;;26.36;40.56
49063;BME280;34876;51.464;-0.150;2022-07-24T06:42:41;101516.06;;;26.00;41.29
49063;BME280;34876;51.464;-0.150;2022-07-24T06:45:11;101521.27;;;25.61;42.19
49063;BME280;34876;51.464;-0.150;2022-07-24T06:47:41;101523.06;;;25.56;42.56
49063;BME280;34876;51.464;-0.150;2022-07-24T06:50:12;101525.11;;;25.53;42.39
49063;BME280;34876;51.464;-0.150;2022-07-24T06:52:41;101523.70;;;25.56;42.33
49063;BME280;34876;51.464;-0.150;2022-07-24T06:55:11;101517.67;;;25.50;42.48
49063;BME280;34876;51.464;-0.150;2022-07-24T06:57:39;101514.45;;;25.50;44.48
49063;BME280;34876;51.464;-0.150;2022-07-24T07:00:09;101512.16;;;25.42;42.70
49063;BME280;34876;51.464;-0.150;2022-07-24T07:02:40;101509.76;;;25.49;42.51
49063;BME280;34876;51.464;-0.150;2022-07-24T07:05:10;101508.56;;;25.63;42.16
49063;BME280;34876;51.464;-0.150;2022-07-24T07:07:39;101507.84;;;25.60;42.25
49063;BME280;34876;51.464;-0.150;2022-07-24T07:10:09;101505.10;;;25.47;42.58
49063;BME280;34876;51.464;-0.150;2022-07-24T07:12:38;101505.97;;;25.65;42.07
49063;BME280;34876;51.464;-0.150;2022-07-24T07:15:08;101501.81;;;25.64;42.16
49063;BME280;34876;51.464;-0.150;2022-07-24T07:17:38;101502.45;;;25.33;43.74
49063;BME280;34876;51.464;-0.150;2022-07-24T07:20:11;101497.14;;;25.43;44.63
49063;BME280;34876;51.464;-0.150;2022-07-24T07:22:41;101496.30;;;25.48;42.57
49063;BME280;34876;51.464;-0.150;2022-07-24T07:25:11;101495.31;;;25.57;42.34
49063;BME280;34876;51.464;-0.150;2022-07-24T07:27:41;101488.48;;;25.65;42.08
49063;BME280;34876;51.464;-0.150;2022-07-24T07:30:10;101487.67;;;25.56;42.34
49063;BME280;34876;51.464;-0.150;2022-07-24T07:32:40;101488.14;;;25.53;42.37
49063;BME280;34876;51.464;-0.150;2022-07-24T07:35:10;101484.98;;;25.57;42.27
49063;BME280;34876;51.464;-0.150;2022-07-24T07:37:39;101477.96;;;25.65;42.55
49063;BME280;34876;51.464;-0.150;2022-07-24T07:40:10;101476.72;;;25.57;42.31
49063;BME280;34876;51.464;-0.150;2022-07-24T07:42:39;101479.23;;;25.51;42.70
49063;BME280;34876;51.464;-0.150;2022-07-24T07:45:09;101479.44;;;25.34;42.80
49063;BME280;34876;51.464;-0.150;2022-07-24T07:47:39;101476.17;;;25.43;42.63
49063;BME280;34876;51.464;-0.150;2022-07-24T07:50:09;101478.57;;;25.53;42.37
49063;BME280;34876;51.464;-0.150;2022-07-24T07:52:39;101478.35;;;25.68;41.97
49063;BME280;34876;51.464;-0.150;2022-07-24T07:55:10;101474.69;;;25.56;42.34
49063;BME280;34876;51.464;-0.150;2022-07-24T07:57:39;101472.70;;;25.69;42.01
49063;BME280;34876;51.464;-0.150;2022-07-24T08:00:10;101472.09;;;25.90;41.53
49063;BME280;34876;51.464;-0.150;2022-07-24T08:02:39;101466.89;;;25.83;41.77
49063;BME280;34876;51.464;-0.150;2022-07-24T08:05:09;101466.56;;;25.80;41.71
49063;BME280;34876;51.464;-0.150;2022-07-24T08:07:38;101461.04;;;25.72;41.84
49063;BME280;34876;51.464;-0.150;2022-07-24T08:10:08;101459.14;;;25.91;41.41
49063;BME280;34876;51.464;-0.150;2022-07-24T08:12:38;101456.59;;;25.96;42.05
49063;BME280;34876;51.464;-0.150;2022-07-24T08:15:08;101459.80;;;25.86;41.54
49063;BME280;34876;51.464;-0.150;2022-07-24T08:17:38;101463.13;;;26.12;40.95
49063;BME280;34876;51.464;-0.150;2022-07-24T08:20:09;101458.86;;;27.20;38.75
49063;BME280;34876;51.464;-0.150;2022-07-24T08:22:38;101462.82;;;26.42;40.87
49063;BME280;34876;51.464;-0.150;2022-07-24T08:25:08;101463.53;;;25.97;41.21
49063;BME280;34876;51.464;-0.150;2022-07-24T08:27:37;101463.38;;;25.81;41.83
49063;BME280;34876;51.464;-0.150;2022-07-24T08:30:08;101467.27;;;25.93;41.27
49063;BME280;34876;51.464;-0.150;2022-07-24T08:32:37;101465.78;;;25.80;41.64
49063;BME280;34876;51.464;-0.150;2022-07-24T08:35:07;101461.63;;;25.95;41.43
49063;BME280;34876;51.464;-0.150;2022-07-24T08:37:36;101462.95;;;25.77;42.35
49063;BME280;34876;51.464;-0.150;2022-07-24T08:40:07;101458.24;;;25.91;41.55
49063;BME280;34876;51.464;-0.150;2022-07-24T08:42:37;101456.16;;;25.75;42.56
49063;BME280;34876;51.464;-0.150;2022-07-24T08:45:07;101456.11;;;25.82;42.16
49063;BME280;34876;51.464;-0.150;2022-07-24T08:47:39;101452.76;;;25.74;41.86
49063;BME280;34876;51.464;-0.150;2022-07-24T08:50:09;101447.71;;;25.83;42.14
49063;BME280;34876;51.464;-0.150;2022-07-24T08:52:39;101445.36;;;25.78;42.64
49063;BME280;34876;51.464;-0.150;2022-07-24T08:55:08;101441.24;;;25.77;41.80
49063;BME280;34876;51.464;-0.150;2022-07-24T08:57:37;101441.03;;;25.66;42.51
49063;BME280;34876;51.464;-0.150;2022-07-24T09:00:07;101438.79;;;26.01;41.49
49063;BME280;34876;51.464;-0.150;2022-07-24T09:02:37;101431.53;;;26.87;39.44
49063;BME280;34876;51.464;-0.150;2022-07-24T09:05:06;101424.53;;;27.35;38.22
49063;BME280;34876;51.464;-0.150;2022-07-24T09:07:36;101432.36;;;27.16;38.64
49063;BME280;34876;51.464;-0.150;2022-07-24T09:10:07;101428.93;;;26.73;39.17
49063;BME280;34876;51.464;-0.150;2022-07-24T09:12:38;101435.03;;;26.49;39.78
49063;BME280;34876;51.464;-0.150;2022-07-24T09:15:14;101425.75;;;26.25;40.28
49063;BME280;34876;51.464;-0.150;2022-07-24T09:17:52;101426.09;;;26.33;40.26
49063;BME280;34876;51.464;-0.150;2022-07-24T09:20:23;101419.95;;;26.33;39.98
49063;BME280;34876;51.464;-0.150;2022-07-24T09:22:52;101420.93;;;26.38;39.94
49063;BME280;34876;51.464;-0.150;2022-07-24T09:25:23;101418.53;;;26.54;39.57
49063;BME280;34876;51.464;-0.150;2022-07-24T09:27:54;101418.27;;;26.58;39.59
49063;BME280;34876;51.464;-0.150;2022-07-24T09:30:28;101409.66;;;26.53;39.92
49063;BME280;34876;51.464;-0.150;2022-07-24T09:32:59;101404.76;;;26.77;39.07
49063;BME280;34876;51.464;-0.150;2022-07-24T09:35:31;101411.96;;;26.62;39.15
49063;BME280;34876;51.464;-0.150;2022-07-24T09:38:02;101407.47;;;26.75;38.88
49063;BME280;34876;51.464;-0.150;2022-07-24T09:40:33;101400.22;;;27.60;37.51
49063;BME280;34876;51.464;-0.150;2022-07-24T09:43:21;101396.97;;;28.06;36.28
49063;BME280;34876;51.464;-0.150;2022-07-24T09:45:53;101389.83;;;28.97;34.84
49063;BME280;34876;51.464;-0.150;2022-07-24T09:48:24;101393.60;;;28.16;36.25
49063;BME280;34876;51.464;-0.150;2022-07-24T09:50:55;101385.12;;;28.64;35.21
49063;BME280;34876;51.464;-0.150;2022-07-24T09:53:26;101380.02;;;28.88;34.92
49063;BME280;34876;51.464;-0.150;2022-07-24T09:55:58;101384.60;;;28.39;35.78
49063;BME280;34876;51.464;-0.150;2022-07-24T09:58:29;101382.48;;;28.41;35.78
49063;BME280;34876;51.464;-0.150;2022-07-24T10:01:00;101377.11;;;29.59;33.22
49063;BME280;34876;51.464;-0.150;2022-07-24T10:03:31;101373.38;;;29.46;33.67
49063;BME280;34876;51.464;-0.150;2022-07-24T10:06:04;101373.79;;;29.37;33.03
49063;BME280;34876;51.464;-0.150;2022-07-24T10:08:36;101373.43;;;29.81;31.99
49063;BME280;34876;51.464;-0.150;2022-07-24T10:11:06;101368.49;;;29.56;32.09
49063;BME280;34876;51.464;-0.150;2022-07-24T10:13:35;101366.26;;;29.18;34.13
49063;BME280;34876;51.464;-0.150;2022-07-24T10:16:25;101368.51;;;29.74;32.69
49063;BME280;34876;51.464;-0.150;2022-07-24T10:18:56;101367.98;;;29.96;32.40
49063;BME280;34876;51.464;-0.150;2022-07-24T10:21:28;101359.86;;;29.53;32.71
49063;BME280;34876;51.464;-0.150;2022-07-24T10:24:46;101367.65;;;28.83;34.27
49063;BME280;34876;51.464;-0.150;2022-07-24T10:27:26;101370.94;;;28.02;36.68
49063;BME280;34876;51.464;-0.150;2022-07-24T10:29:58;101372.72;;;28.26;34.70
49063;BME280;34876;51.464;-0.150;2022-07-24T10:32:30;101357.49;;;28.74;34.84
49063;BME280;34876;51.464;-0.150;2022-07-24T10:35:08;101353.78;;;29.51;33.32
49063;BME280;34876;51.464;-0.150;2022-07-24T10:37:50;101350.75;;;30.04;32.60
49063;BME280;34876;51.464;-0.150;2022-07-24T10:40:26;101351.96;;;29.72;32.65
49063;BME280;34876;51.464;-0.150;2022-07-24T10:43:14;101351.57;;;29.61;33.38
49063;BME280;34876;51.464;-0.150;2022-07-24T10:45:45;101351.61;;;29.46;32.55
49063;BME280;34876;51.464;-0.150;2022-07-24T10:48:31;101343.33;;;29.62;31.97
49063;BME280;34876;51.464;-0.150;2022-07-24T10:51:04;101346.14;;;29.40;33.34
49063;BME280;34876;51.464;-0.150;2022-07-24T10:53:52;101346.22;;;29.17;33.11
49063;BME280;34876;51.464;-0.150;2022-07-24T10:56:26;101350.84;;;29.64;31.85
49063;BME280;34876;51.464;-0.150;2022-07-24T10:58:58;101347.77;;;29.58;32.38
49063;BME280;34876;51.464;-0.150;2022-07-24T11:01:30;101353.09;;;28.77;33.12
49063;BME280;34876;51.464;-0.150;2022-07-24T11:04:00;101349.44;;;29.04;33.26
49063;BME280;34876;51.464;-0.150;2022-07-24T11:06:47;101342.51;;;29.59;32.69
49063;BME280;34876;51.464;-0.150;2022-07-24T11:09:17;101348.79;;;28.33;34.31
49063;BME280;34876;51.464;-0.150;2022-07-24T11:12:05;101342.97;;;28.93;33.63
49063;BME280;34876;51.464;-0.150;2022-07-24T11:14:50;101344.68;;;28.84;34.48
49063;BME280;34876;51.464;-0.150;2022-07-24T11:17:51;101338.31;;;29.15;32.09
49063;BME280;34876;51.464;-0.150;2022-07-24T11:20:22;101339.44;;;28.80;33.16
49063;BME280;34876;51.464;-0.150;2022-07-24T11:22:52;101337.06;;;28.88;32.72
49063;BME280;34876;51.464;-0.150;2022-07-24T11:25:23;101333.00;;;28.90;34.42
49063;BME280;34876;51.464;-0.150;2022-07-24T11:27:55;101323.14;;;28.60;32.90
49063;BME280;34876;51.464;-0.150;2022-07-24T11:30:27;101324.57;;;28.93;33.02
49063;BME280;34876;51.464;-0.150;2022-07-24T11:32:57;101319.79;;;29.30;33.31
49063;BME280;34876;51.464;-0.150;2022-07-24T11:35:28;101323.63;;;29.23;33.93
49063;BME280;34876;51.464;-0.150;2022-07-24T11:37:59;101313.85;;;29.03;32.47
49063;BME280;34876;51.464;-0.150;2022-07-24T11:40:28;101313.96;;;28.99;33.40
49063;BME280;34876;51.464;-0.150;2022-07-24T11:42:59;101308.41;;;28.69;34.37
49063;BME280;34876;51.464;-0.150;2022-07-24T11:45:28;101311.29;;;28.39;33.58
49063;BME280;34876;51.464;-0.150;2022-07-24T11:47:57;101302.32;;;28.52;32.95
49063;BME280;34876;51.464;-0.150;2022-07-24T11:50:27;101302.65;;;28.69;33.89
49063;BME280;34876;51.464;-0.150;2022-07-24T11:52:58;101295.09;;;28.42;33.92
49063;BME280;34876;51.464;-0.150;2022-07-24T11:55:27;101291.83;;;28.70;33.08
49063;BME280;34876;51.464;-0.150;2022-07-24T11:57:56;101286.73;;;28.43;33.21
49063;BME280;34876;51.464;-0.150;2022-07-24T12:00:28;101285.00;;;28.43;33.60
49063;BME280;34876;51.464;-0.150;2022-07-24T12:02:59;101293.10;;;28.57;33.01
49063;BME280;34876;51.464;-0.150;2022-07-24T12:05:31;101281.64;;;28.22;33.00
49063;BME280;34876;51.464;-0.150;2022-07-24T12:08:01;101281.46;;;28.11;33.37
49063;BME280;34876;51.464;-0.150;2022-07-24T12:10:31;101286.06;;;28.35;35.37
49063;BME280;34876;51.464;-0.150;2022-07-24T12:13:02;101291.72;;;27.99;35.99
49063;BME280;34876;51.464;-0.150;2022-07-24T12:15:31;101278.03;;;28.23;33.79
49063;BME280;34876;51.464;-0.150;2022-07-24T12:18:02;101272.36;;;28.22;34.04
49063;BME280;34876;51.464;-0.150;2022-07-24T12:20:32;101267.99;;;28.34;34.12
49063;BME280;34876;51.464;-0.150;2022-07-24T12:23:05;101269.32;;;28.38;35.58
49063;BME280;34876;51.464;-0.150;2022-07-24T12:25:35;101267.29;;;28.29;35.78
49063;BME280;34876;51.464;-0.150;2022-07-24T12:28:05;101259.04;;;27.90;36.31
49063;BME280;34876;51.464;-0.150;2022-07-24T12:30:37;101256.65;;;27.92;35.04
49063;BME280;34876;51.464;-0.150;2022-07-24T12:33:08;101254.48;;;27.92;34.62
49063;BME280;34876;51.464;-0.150;2022-07-24T12:35:53;101250.29;;;28.22;34.57
49063;BME280;34876;51.464;-0.150;2022-07-24T12:38:25;101245.41;;;28.27;35.94
49063;BME280;34876;51.464;-0.150;2022-07-24T12:41:04;101238.25;;;28.32;34.19
49063;BME280;34876;51.464;-0.150;2022-07-24T12:43:46;101238.68;;;28.16;35.96
49063;BME280;34876;51.464;-0.150;2022-07-24T12:46:16;101239.09;;;27.82;35.58
49063;BME280;34876;51.464;-0.150;2022-07-24T12:48:57;101241.77;;;27.68;37.12
49063;BME280;34876;51.464;-0.150;2022-07-24T12:51:27;101226.83;;;28.35;34.88
49063;BME280;34876;51.464;-0.150;2022-07-24T12:54:16;101224.55;;;28.28;34.24
49063;BME280;34876;51.464;-0.150;2022-07-24T12:56:46;101222.15;;;28.42;34.33
49063;BME280;34876;51.464;-0.150;2022-07-24T12:59:22;101222.19;;;28.13;35.83
49063;BME280;34876;51.464;-0.150;2022-07-24T13:01:54;101217.58;;;28.30;34.62